Crooked Creek Research Lab Weather observations

Data are for 10 minute period ending at time listed.
 Day   Time    Ave.   Ave.  Ave.  Vector   Max.   Stn.    Total    Solar   Ave.   Snow 
  of    of     Air    Rel.  Wind   Wind    Wind   Baro.  Precip.   Rad.    Soil   Depth
Year   Day     Temp.  Hum.  Speed  Dir.    Gust   Pres.                    Temp.       
2014   (PST)    F      %     mph   deg.    mph     mb.     in.     W/m2     F      in. 
---------------------------------------------------------------------------------------  
 298    0:00   43.2    28    3.2   224      6.7   705.0    0.00       0    999.0    -0.5
 298    0:10   43.1    28    3.0   210      7.2   705.0    0.00       0    999.0    -0.5
 298    0:20   42.8    29    2.9   212      7.8   704.9    0.00       0    999.0    -0.5
 298    0:30   42.5    29    3.2   210     11.1   704.8    0.00       0    999.0    -0.5
 298    0:40   42.4    29    2.5   201      8.3   705.0    0.00       0    999.0    -0.5
 298    0:50   42.6    28    2.6   207      7.0   704.8    0.00       0    999.0    -0.5
 298    1:00   43.0    28    2.8   174      8.0   704.9    0.00       0    999.0    -0.5
 298    1:10   43.3    27    2.9   212      8.8   704.8    0.00       0    999.0    -0.5
 298    1:20   43.0    28    2.9   166      7.8   704.7    0.00       0    999.0    -0.5
 298    1:30   42.7    28    2.1   167      6.4   704.7    0.00       0    999.0    -0.5
 298    1:40   42.2    28    2.5   166      7.1   704.7    0.00       0    999.0    -0.5
 298    1:50   41.8    29    2.0   167      5.5   704.7    0.00       0    999.0    -0.6
 298    2:00   41.7    29    2.3   174      7.0   704.5    0.00       0    999.0    -0.5
 298    2:10   41.2    30    2.8   162      7.4   704.6    0.00       0    999.0    -0.6
 298    2:20   41.1    30    2.0   167      5.9   704.4    0.00       0    999.0    -0.6
 298    2:30   40.8    30    2.5   173      6.8   704.5    0.00       0    999.0    -0.6
 298    2:40   41.0    29    2.3   159      8.7   704.4    0.00       0    999.0    -0.5
 298    2:50   41.3    29    3.1   183     10.7   704.4    0.00       0    999.0    -0.5
 298    3:00   41.3    29    3.1   169     11.2   704.3    0.00       0    999.0    -0.5
 298    3:10   41.0    29    2.8   144      7.2   704.4    0.00       0    999.0    -0.5
 298    3:20   41.2    28    2.5   138      6.9   704.4    0.00       0    999.0    -0.5
 298    3:30   41.1    29    3.1   206      8.8   704.4    0.00       0    999.0    -0.6
 298    3:40   40.7    29    3.7   204     11.9   704.3    0.00       0    999.0    -0.4
 298    3:50   42.0    27    5.5   207     15.7   704.3    0.00       0    999.0    -0.5
 298    4:00   43.8    24    6.6   224     14.7   704.3    0.00       0    999.0    -0.4
 298    4:10   44.4    24    8.8   241     17.3   704.5    0.00       0    999.0    -0.6
 298    4:20   44.3    24    8.9   239     17.3   704.3    0.00       0    999.0    -0.5
 298    4:30   44.4    24    6.5   222     17.0   704.7    0.00       0    999.0    -0.4
 298    4:40   44.9    23    9.6   237     20.0   704.4    0.00       0    999.0    -0.5
 298    4:50   44.8    23    8.5   237     19.3   704.7    0.00       0    999.0    -0.6
 298    5:00   43.8    24    4.3   224     11.7   704.8    0.00       0    999.0    -0.6
 298    5:10   42.5    26    3.9   203     13.1   704.8    0.00       0    999.0    -0.5
 298    5:20   42.4    26    3.1   184      8.5   704.8    0.00       0    999.0    -0.4
 298    5:30   42.2    27    2.1   185      6.3   704.9    0.00       0    999.0    -0.6
 298    5:40   40.9    28    1.8   175      5.2   704.8    0.00       0    999.0    -0.5
 298    5:50   39.9    30    2.1   218      6.1   704.8    0.00       1    999.0    -0.7
 298    6:00   38.7    31    2.5   222      6.0   704.8    0.00       3    999.0    -0.6
 298    6:10   39.0    31    2.0   210      5.5   704.7    0.00       6    999.0    -0.5
 298    6:20   39.4    30    2.3   211      8.4   704.8    0.00       8    999.0    -0.6
 298    6:30   39.6    30    1.9   188      4.6   704.8    0.00      10    999.0    -0.4
 298    6:40   40.1    30    1.5   166      4.9   705.0    0.00      12    999.0    -0.6
 298    6:50   40.7    29    2.8   202      7.2   705.2    0.00      13    999.0    -0.5
 298    7:00   41.8    28    2.2   189      8.9   705.2    0.00      15    999.0    -0.5
 298    7:10   42.4    27    2.0   160      5.9   705.2    0.00      18    999.0    -0.5
 298    7:20   45.2    25    2.5   178     10.3   705.3    0.00     226    999.0    -0.5
 298    7:30   48.5    22    3.3   190     11.3   705.4    0.00     277    999.0    -0.5
 298    7:40   49.5    21    3.9   213     13.2   705.4    0.00     307    999.0    -0.6
 298    7:50   49.7    21    4.8   192     15.3   705.6    0.00     337    999.0    -0.5
 298    8:00   50.4    21    2.8   200     11.7   705.7    0.00     366    999.0    -0.6
 298    8:10   51.6    20    4.7   143      9.1   705.7    0.00     394    999.0    -0.5
 298    8:20   52.1    20    3.9   164      9.9   705.7    0.00     421    999.0    -0.6
 298    8:30   52.2    20    4.3   194     10.8   705.8    0.00     448    999.0    -0.5
 298    8:40   52.9    19    3.2   161      9.1   705.7    0.00     473    999.0    -0.5
 298    8:50   53.4    19    4.7   201     17.2   705.8    0.00     497    999.0    -0.5
 298    9:00   53.7    18    4.3   197     10.4   705.8    0.00     520    999.0    -0.4
 298    9:10   53.9    18    3.9   207     12.9   705.8    0.00     541    999.0    -0.5
 298    9:20   55.0    17    4.1   207     14.2   705.8    0.00     561    999.0    -0.5
 298    9:30   55.3    16    4.0   202     12.8   705.8    0.00     580    999.0    -0.5
 298    9:40   54.9    16    4.9   181     15.1   705.9    0.00     597    999.0    -0.4
 298    9:50   54.5    17    7.1   230     20.0   705.8    0.00     613    999.0    -0.5
 298   10:00   53.9    17    8.1   233     19.1   705.7    0.00     627    999.0    -0.4
 298   10:10   54.3    16    7.7   227     18.9   705.7    0.00     640    999.0    -0.3
 298   10:20   55.9    16    4.5   208     13.8   705.5    0.00     652    999.0    -0.3
 298   10:30   56.1    16    6.2   218     17.2   705.4    0.00     661    999.0    -0.4
 298   10:40   55.7    16    7.6   224     22.5   705.3    0.00     669    999.0    -0.4
 298   10:50   55.5    15    7.8   226     18.6   705.4    0.00     676    999.0    -0.4
 298   11:00   55.6    16    7.2   226     18.3   705.4    0.00     681    999.0    -0.4
 298   11:10   55.7    15    8.4   228     24.0   705.3    0.00     684    999.0    -0.4
 298   11:20   55.9    15    7.1   222     20.0   705.2    0.00     685    999.0    -0.3
 298   11:30   56.3    15    6.7   218     21.5   704.9    0.00     684    999.0    -0.3
 298   11:40   56.5    15    6.8   204     20.3   704.9    0.00     683    999.0    -0.4
 298   11:50   56.4    15    6.8   218     20.7   704.8    0.00     679    999.0    -0.4
 298   12:00   56.6    15    6.4   204     21.1   704.7    0.00     674    999.0    -0.4
 298   12:10   57.0    15    6.7   191     17.8   704.6    0.00     666    999.0    -0.4
 298   12:20   57.2    15    6.6   225     20.2   704.0    0.00     657    999.0    -0.4
 298   12:30   56.9    15    7.6   219     24.1   704.4    0.00     647    999.0    -0.4
 298   12:40   56.9    15    6.7   216     26.8   704.4    0.00     636    999.0    -0.3
 298   12:50   57.4    14    6.2   206     22.0   704.3    0.00     623    999.0    -0.3
 298   13:00   57.6    15    4.9   195     17.3   704.2    0.00     608    999.0    -0.3
 298   13:10   57.8    14    7.1   222     19.5   704.1    0.00     592    999.0    -0.3
 298   13:20   57.7    14    7.2   192     24.8   703.7    0.00     574    999.0    -0.3
 298   13:30   57.3    14    6.9   200     17.1   704.2    0.00     555    999.0    -0.2
 298   13:40   57.9    13    6.7   210     19.4   704.0    0.00     533    999.0    -0.4
 298   13:50   57.8    13    5.8   207     22.4   704.0    0.00     512    999.0    -0.3
 298   14:00   57.9    13    4.9   175     15.7   704.0    0.00     489    999.0    -0.3
 298   14:10   57.7    13    7.7   191     26.5   703.8    0.00     464    999.0    -0.2
 298   14:20   57.4    13    6.6   158     15.4   704.0    0.00     438    999.0    -0.3
 298   14:30   57.5    13    5.8   152     20.2   704.0    0.00     412    999.0    -0.2
 298   14:40   57.6    13    5.0   169     19.4   704.0    0.00     384    999.0    -0.3
 298   14:50   57.5    13    6.2   189     20.3   703.8    0.00     356    999.0    -0.4
 298   15:00   57.2    13    4.5   142     15.0   704.0    0.00     326    999.0    -0.3
 298   15:10   56.9    14    5.2   167     15.7   703.8    0.00     296    999.0    -0.3
 298   15:20   56.6    14    4.9   204     25.9   703.8    0.00     265    999.0    -0.2
 298   15:30   56.1    14    5.9   182     19.8   703.7    0.00     234    999.0    -0.3
 298   15:40   55.3    14    5.1   158     14.9   703.7    0.00     203    999.0    -0.2
 298   15:50   55.2    14    4.4   180     13.6   703.6    0.00     172    999.0    -0.2
 298   16:00   54.7    15    4.6   185     24.8   703.6    0.00     142    999.0    -0.2
 298   16:10   53.7    17    5.5   162     14.1   703.5    0.00     107    999.0    -0.2
 298   16:20   50.4    22    7.9   125     18.3   703.5    0.00      34    999.0    -0.3
 298   16:30   48.1    25    8.6   119     16.4   703.5    0.00      12    999.0    -0.3
 298   16:40   48.1    22    8.4   119     13.2   703.4    0.00       8    999.0    -0.2
 298   16:50   48.1    21    8.3   120     13.7   703.4    0.00       5    999.0    -0.3
 298   17:00   47.5    20    8.5   119     14.4   703.4    0.00       1    999.0    -0.3
 298   17:10   47.7    19    9.2   120     14.5   703.4    0.00       0    999.0    -0.4
 298   17:20   47.8    18    9.4   120     14.2   703.5    0.00       0    999.0    -0.4
 298   17:30   47.1    18    8.4   122     13.7   703.5    0.00       0    999.0    -0.4
 298   17:40   47.1    19    7.6   123     15.1   703.5    0.00       0    999.0    -0.4
 298   17:50   46.7    20    6.6   130     11.5   703.6    0.00       0    999.0    -0.5
 298   18:00   45.2    23    8.4   124     12.5   703.7    0.00       0    999.0    -0.6
 298   18:10   43.8    30    8.2   119     12.9   703.5    0.00       0    999.0    -0.5
 298   18:20   43.7    31    8.3   116     13.8   703.7    0.00       0    999.0    -0.5
 298   18:30   43.4    31    7.1   122     12.3   703.7    0.00       0    999.0    -0.5
 298   18:40   42.8    31    6.1   124     10.3   703.6    0.00       0    999.0    -0.5
 298   18:50   42.6    32    5.6   126     10.4   703.6    0.00       0    999.0    -0.6
 298   19:00   42.1    32    4.9   134     11.0   703.7    0.00       0    999.0    -0.6
 298   19:10   41.3    33    3.1   153      7.1   703.7    0.00       0    999.0    -0.6
 298   19:20   41.1    33    4.7   143      9.9   703.5    0.00       0    999.0    -0.5
 298   19:30   41.4    33    6.5   137     11.5   703.6    0.00       0    999.0    -0.6
 298   19:40   41.9    32    8.3   125     14.6   703.4    0.00       0    999.0    -0.6
 298   19:50   42.1    29    9.2   130     13.8   703.5    0.00       0    999.0    -0.6
 298   20:00   44.1    24    8.0   122     14.1   703.6    0.00       0    999.0    -0.5
 298   20:10   44.3    23    7.5   122     11.5   703.5    0.00       0    999.0    -0.6
 298   20:20   44.3    23    6.7   127     10.4   703.7    0.00       0    999.0    -0.6
 298   20:30   43.3    24    5.8   137      9.9   703.8    0.00       0    999.0    -0.6
 298   20:40   42.3    27    5.0   138      8.1   703.8    0.00       0    999.0    -0.6
 298   20:50   42.0    27    4.0   144      8.6   703.8    0.00       0    999.0    -0.6
 298   21:00   41.7    28    4.6   147      8.2   703.8    0.00       0    999.0    -0.6
 298   21:10   41.5    27    4.2   163      8.0   703.7    0.00       0    999.0    -0.6
 298   21:20   43.3    21    5.6   143     11.2   703.7    0.00       0    999.0    -0.4
 298   21:30   44.4    20    6.0   143     11.4   703.7    0.00       0    999.0    -0.6
 298   21:40   44.3    20    7.6   130     13.1   703.6    0.00       0    999.0    -0.6
 298   21:50   42.8    28    8.9   121     14.8   703.8    0.00       0    999.0    -0.6
 298   22:00   41.6    33    8.6   119     14.1   703.7    0.00       0    999.0    -0.6
 298   22:10   41.0    34    7.9   121     11.8   703.7    0.00       0    999.0    -0.6
 298   22:20   40.8    33    6.9   127     11.8   703.7    0.00       0    999.0    -0.6
 298   22:30   40.4    32    6.6   134     11.1   703.6    0.00       0    999.0    -0.6
 298   22:40   41.5    26    8.5   125     13.2   703.6    0.00       0    999.0    -0.5
 298   22:50   43.7    21    8.6   123     13.4   703.6    0.00       0    999.0    -0.5
 298   23:00   44.9    18    6.9   145     14.2   703.5    0.00       0    999.0    -0.6
 298   23:10   44.6    18    7.9   128     16.6   703.3    0.00       0    999.0    -0.6
 298   23:20   45.0    18    7.3   133     14.9   703.3    0.00       0    999.0    -0.6
 298   23:30   45.0    17    7.4   137     14.3   703.2    0.00       0    999.0    -0.5
 298   23:40   44.6    18    7.4   134     12.7   703.2    0.00       0    999.0    -0.6
 298   23:50   44.2    19    7.7   127     12.1   703.2    0.00       0    999.0    -0.6

Return to Crooked Creek Research Lab graphs page.


Western Regional Climate Center,wrcc@dri.edu